sensor_id;sensor_type;location;lat;lon;timestamp;P1;P2;P0
70249;PMS5003;57644;48.416;-123.374;2022-11-21T00:00:00;26;25;
70249;PMS5003;57644;48.416;-123.374;2022-11-21T00:02:30;25;23;
70249;PMS5003;57644;48.416;-123.374;2022-11-21T00:05:02;22;22;
70249;PMS5003;57644;48.416;-123.374;2022-11-21T00:07:32;24;22;
70249;PMS5003;57644;48.416;-123.374;2022-11-21T00:10:02;28;26;
70249;PMS5003;57644;48.416;-123.374;2022-11-21T00:12:33;27;27;
70249;PMS5003;57644;48.416;-123.374;2022-11-21T00:15:03;31;30;
70249;PMS5003;57644;48.416;-123.374;2022-11-21T00:17:34;29;27;
70249;PMS5003;57644;48.416;-123.374;2022-11-21T00:20:05;31;29;
70249;PMS5003;57644;48.416;-123.374;2022-11-21T00:22:35;35;34;
70249;PMS5003;57644;48.416;-123.374;2022-11-21T00:25:06;29;28;
70249;PMS5003;57644;48.416;-123.374;2022-11-21T00:27:36;32;30;
70249;PMS5003;57644;48.416;-123.374;2022-11-21T00:30:08;29;27;
70249;PMS5003;57644;48.416;-123.374;2022-11-21T00:32:37;27;26;
70249;PMS5003;57644;48.416;-123.374;2022-11-21T00:35:08;30;29;
70249;PMS5003;57644;48.416;-123.374;2022-11-21T00:37:38;31;29;
70249;PMS5003;57644;48.416;-123.374;2022-11-21T00:40:09;29;29;
70249;PMS5003;57644;48.416;-123.374;2022-11-21T00:42:40;28;28;
70249;PMS5003;57644;48.416;-123.374;2022-11-21T00:45:11;27;26;
70249;PMS5003;57644;48.416;-123.374;2022-11-21T00:47:41;28;28;
70249;PMS5003;57644;48.416;-123.374;2022-11-21T00:50:12;24;23;
70249;PMS5003;57644;48.416;-123.374;2022-11-21T00:52:42;26;25;
70249;PMS5003;57644;48.416;-123.374;2022-11-21T00:55:12;25;24;
70249;PMS5003;57644;48.416;-123.374;2022-11-21T00:57:42;25;25;
70249;PMS5003;57644;48.416;-123.374;2022-11-21T01:00:13;25;24;
70249;PMS5003;57644;48.416;-123.374;2022-11-21T01:02:43;25;24;
70249;PMS5003;57644;48.416;-123.374;2022-11-21T01:05:13;27;26;
70249;PMS5003;57644;48.416;-123.374;2022-11-21T01:07:43;22;22;
70249;PMS5003;57644;48.416;-123.374;2022-11-21T01:10:14;26;26;
70249;PMS5003;57644;48.416;-123.374;2022-11-21T01:12:44;24;24;
70249;PMS5003;57644;48.416;-123.374;2022-11-21T01:15:14;25;24;
70249;PMS5003;57644;48.416;-123.374;2022-11-21T01:17:45;25;24;
70249;PMS5003;57644;48.416;-123.374;2022-11-21T01:20:15;25;25;
70249;PMS5003;57644;48.416;-123.374;2022-11-21T01:22:45;27;26;
70249;PMS5003;57644;48.416;-123.374;2022-11-21T01:25:16;27;27;
70249;PMS5003;57644;48.416;-123.374;2022-11-21T01:27:46;24;24;
70249;PMS5003;57644;48.416;-123.374;2022-11-21T01:30:18;30;29;
70249;PMS5003;57644;48.416;-123.374;2022-11-21T01:32:49;26;26;
70249;PMS5003;57644;48.416;-123.374;2022-11-21T01:35:22;26;26;
70249;PMS5003;57644;48.416;-123.374;2022-11-21T01:37:49;28;27;
70249;PMS5003;57644;48.416;-123.374;2022-11-21T01:40:20;25;25;
70249;PMS5003;57644;48.416;-123.374;2022-11-21T01:42:52;31;29;
70249;PMS5003;57644;48.416;-123.374;2022-11-21T01:47:52;26;26;
70249;PMS5003;57644;48.416;-123.374;2022-11-21T01:50:21;24;24;
70249;PMS5003;57644;48.416;-123.374;2022-11-21T01:52:51;24;23;
70249;PMS5003;57644;48.416;-123.374;2022-11-21T01:55:22;23;23;
70249;PMS5003;57644;48.416;-123.374;2022-11-21T01:57:53;24;23;
70249;PMS5003;57644;48.416;-123.374;2022-11-21T02:00:24;29;29;
70249;PMS5003;57644;48.416;-123.374;2022-11-21T02:02:55;23;23;
70249;PMS5003;57644;48.416;-123.374;2022-11-21T02:05:25;28;27;
70249;PMS5003;57644;48.416;-123.374;2022-11-21T02:07:55;26;25;
70249;PMS5003;57644;48.416;-123.374;2022-11-21T02:10:25;29;27;
70249;PMS5003;57644;48.416;-123.374;2022-11-21T02:12:56;85;81;
70249;PMS5003;57644;48.416;-123.374;2022-11-21T02:15:29;31;30;
70249;PMS5003;57644;48.416;-123.374;2022-11-21T02:17:57;33;32;
70249;PMS5003;57644;48.416;-123.374;2022-11-21T02:20:27;97;94;
70249;PMS5003;57644;48.416;-123.374;2022-11-21T02:22:58;184;181;
70249;PMS5003;57644;48.416;-123.374;2022-11-21T02:25:29;74;70;
70249;PMS5003;57644;48.416;-123.374;2022-11-21T02:28:00;66;65;
70249;PMS5003;57644;48.416;-123.374;2022-11-21T02:30:31;48;46;
70249;PMS5003;57644;48.416;-123.374;2022-11-21T02:33:00;43;41;
70249;PMS5003;57644;48.416;-123.374;2022-11-21T02:35:31;37;36;
70249;PMS5003;57644;48.416;-123.374;2022-11-21T02:38:02;40;37;
70249;PMS5003;57644;48.416;-123.374;2022-11-21T02:40:32;43;41;
70249;PMS5003;57644;48.416;-123.374;2022-11-21T02:43:05;48;46;
70249;PMS5003;57644;48.416;-123.374;2022-11-21T02:45:33;46;44;
70249;PMS5003;57644;48.416;-123.374;2022-11-21T02:48:03;45;42;
70249;PMS5003;57644;48.416;-123.374;2022-11-21T02:50:35;45;43;
70249;PMS5003;57644;48.416;-123.374;2022-11-21T02:53:05;49;48;
70249;PMS5003;57644;48.416;-123.374;2022-11-21T02:55:35;50;48;
70249;PMS5003;57644;48.416;-123.374;2022-11-21T02:58:05;47;44;
70249;PMS5003;57644;48.416;-123.374;2022-11-21T03:00:36;48;45;
70249;PMS5003;57644;48.416;-123.374;2022-11-21T03:03:06;48;45;
70249;PMS5003;57644;48.416;-123.374;2022-11-21T03:05:36;50;48;
70249;PMS5003;57644;48.416;-123.374;2022-11-21T03:08:06;45;43;
70249;PMS5003;57644;48.416;-123.374;2022-11-21T03:10:37;49;46;
70249;PMS5003;57644;48.416;-123.374;2022-11-21T03:13:08;47;45;
70249;PMS5003;57644;48.416;-123.374;2022-11-21T03:15:38;45;44;
70249;PMS5003;57644;48.416;-123.374;2022-11-21T03:18:09;52;51;
70249;PMS5003;57644;48.416;-123.374;2022-11-21T03:20:40;51;48;
70249;PMS5003;57644;48.416;-123.374;2022-11-21T03:23:11;46;45;
70249;PMS5003;57644;48.416;-123.374;2022-11-21T03:25:41;45;38;
70249;PMS5003;57644;48.416;-123.374;2022-11-21T03:28:11;45;43;
70249;PMS5003;57644;48.416;-123.374;2022-11-21T03:30:42;45;44;
70249;PMS5003;57644;48.416;-123.374;2022-11-21T03:33:12;44;42;
70249;PMS5003;57644;48.416;-123.374;2022-11-21T03:35:42;49;47;
70249;PMS5003;57644;48.416;-123.374;2022-11-21T03:38:12;52;49;
70249;PMS5003;57644;48.416;-123.374;2022-11-21T03:40:43;47;45;
70249;PMS5003;57644;48.416;-123.374;2022-11-21T03:43:13;47;43;
70249;PMS5003;57644;48.416;-123.374;2022-11-21T03:45:45;43;41;
70249;PMS5003;57644;48.416;-123.374;2022-11-21T03:48:14;39;37;
70249;PMS5003;57644;48.416;-123.374;2022-11-21T03:50:45;36;35;
70249;PMS5003;57644;48.416;-123.374;2022-11-21T03:53:15;49;45;
70249;PMS5003;57644;48.416;-123.374;2022-11-21T03:55:45;41;39;
70249;PMS5003;57644;48.416;-123.374;2022-11-21T03:58:16;40;39;
70249;PMS5003;57644;48.416;-123.374;2022-11-21T04:00:46;45;43;
70249;PMS5003;57644;48.416;-123.374;2022-11-21T04:03:17;43;41;
70249;PMS5003;57644;48.416;-123.374;2022-11-21T04:05:47;45;45;
70249;PMS5003;57644;48.416;-123.374;2022-11-21T04:08:17;44;44;
70249;PMS5003;57644;48.416;-123.374;2022-11-21T04:10:49;40;40;
70249;PMS5003;57644;48.416;-123.374;2022-11-21T04:13:18;43;42;
70249;PMS5003;57644;48.416;-123.374;2022-11-21T04:15:49;41;39;
70249;PMS5003;57644;48.416;-123.374;2022-11-21T04:18:18;47;44;
70249;PMS5003;57644;48.416;-123.374;2022-11-21T04:23:19;54;52;
70249;PMS5003;57644;48.416;-123.374;2022-11-21T04:25:49;53;49;
70249;PMS5003;57644;48.416;-123.374;2022-11-21T04:28:20;61;58;
70249;PMS5003;57644;48.416;-123.374;2022-11-21T04:30:51;49;46;
70249;PMS5003;57644;48.416;-123.374;2022-11-21T04:33:22;56;53;
70249;PMS5003;57644;48.416;-123.374;2022-11-21T04:35:52;52;49;
70249;PMS5003;57644;48.416;-123.374;2022-11-21T04:38:22;55;53;
70249;PMS5003;57644;48.416;-123.374;2022-11-21T04:40:52;53;48;
70249;PMS5003;57644;48.416;-123.374;2022-11-21T04:43:22;48;48;
70249;PMS5003;57644;48.416;-123.374;2022-11-21T04:45:53;54;52;
70249;PMS5003;57644;48.416;-123.374;2022-11-21T04:48:23;59;54;
70249;PMS5003;57644;48.416;-123.374;2022-11-21T04:50:54;51;50;
70249;PMS5003;57644;48.416;-123.374;2022-11-21T04:53:24;50;49;
70249;PMS5003;57644;48.416;-123.374;2022-11-21T04:55:54;52;51;
70249;PMS5003;57644;48.416;-123.374;2022-11-21T04:58:25;48;47;
70249;PMS5003;57644;48.416;-123.374;2022-11-21T05:00:55;58;54;
70249;PMS5003;57644;48.416;-123.374;2022-11-21T05:03:25;50;49;
70249;PMS5003;57644;48.416;-123.374;2022-11-21T05:05:56;49;46;
70249;PMS5003;57644;48.416;-123.374;2022-11-21T05:08:27;49;47;
70249;PMS5003;57644;48.416;-123.374;2022-11-21T05:10:57;52;51;
70249;PMS5003;57644;48.416;-123.374;2022-11-21T05:13:28;56;54;
70249;PMS5003;57644;48.416;-123.374;2022-11-21T05:15:58;49;46;
70249;PMS5003;57644;48.416;-123.374;2022-11-21T05:18:29;50;48;
70249;PMS5003;57644;48.416;-123.374;2022-11-21T05:21:00;51;51;
70249;PMS5003;57644;48.416;-123.374;2022-11-21T05:23:30;47;44;
70249;PMS5003;57644;48.416;-123.374;2022-11-21T05:26:01;54;49;
70249;PMS5003;57644;48.416;-123.374;2022-11-21T05:28:32;50;49;
70249;PMS5003;57644;48.416;-123.374;2022-11-21T05:31:02;48;44;
70249;PMS5003;57644;48.416;-123.374;2022-11-21T05:33:32;47;46;
70249;PMS5003;57644;48.416;-123.374;2022-11-21T05:36:03;45;45;
70249;PMS5003;57644;48.416;-123.374;2022-11-21T05:38:34;45;43;
70249;PMS5003;57644;48.416;-123.374;2022-11-21T05:41:04;49;47;
70249;PMS5003;57644;48.416;-123.374;2022-11-21T05:43:35;49;45;
70249;PMS5003;57644;48.416;-123.374;2022-11-21T05:46:05;39;39;
70249;PMS5003;57644;48.416;-123.374;2022-11-21T05:48:36;51;48;
70249;PMS5003;57644;48.416;-123.374;2022-11-21T05:51:06;48;46;
70249;PMS5003;57644;48.416;-123.374;2022-11-21T05:53:37;47;44;
70249;PMS5003;57644;48.416;-123.374;2022-11-21T05:56:08;42;40;
70249;PMS5003;57644;48.416;-123.374;2022-11-21T05:58:38;41;41;
70249;PMS5003;57644;48.416;-123.374;2022-11-21T06:01:09;45;44;
70249;PMS5003;57644;48.416;-123.374;2022-11-21T06:03:39;46;43;
70249;PMS5003;57644;48.416;-123.374;2022-11-21T06:06:10;43;41;
70249;PMS5003;57644;48.416;-123.374;2022-11-21T06:08:40;51;47;
70249;PMS5003;57644;48.416;-123.374;2022-11-21T06:11:10;42;42;
70249;PMS5003;57644;48.416;-123.374;2022-11-21T06:13:40;42;40;
70249;PMS5003;57644;48.416;-123.374;2022-11-21T06:16:11;53;50;
70249;PMS5003;57644;48.416;-123.374;2022-11-21T06:18:41;41;41;
70249;PMS5003;57644;48.416;-123.374;2022-11-21T06:21:12;49;45;
70249;PMS5003;57644;48.416;-123.374;2022-11-21T06:23:41;44;43;
70249;PMS5003;57644;48.416;-123.374;2022-11-21T06:26:12;51;48;
70249;PMS5003;57644;48.416;-123.374;2022-11-21T06:28:43;48;47;
70249;PMS5003;57644;48.416;-123.374;2022-11-21T06:31:14;52;47;
70249;PMS5003;57644;48.416;-123.374;2022-11-21T06:33:43;45;43;
70249;PMS5003;57644;48.416;-123.374;2022-11-21T06:36:15;49;48;
70249;PMS5003;57644;48.416;-123.374;2022-11-21T06:38:44;53;50;
70249;PMS5003;57644;48.416;-123.374;2022-11-21T06:41:15;44;43;
70249;PMS5003;57644;48.416;-123.374;2022-11-21T06:43:45;55;51;
70249;PMS5003;57644;48.416;-123.374;2022-11-21T06:46:16;54;51;
70249;PMS5003;57644;48.416;-123.374;2022-11-21T06:48:46;48;47;
70249;PMS5003;57644;48.416;-123.374;2022-11-21T06:51:17;50;45;
70249;PMS5003;57644;48.416;-123.374;2022-11-21T06:53:46;50;50;
70249;PMS5003;57644;48.416;-123.374;2022-11-21T06:56:16;51;49;
70249;PMS5003;57644;48.416;-123.374;2022-11-21T06:58:47;52;49;
70249;PMS5003;57644;48.416;-123.374;2022-11-21T07:01:17;49;47;
70249;PMS5003;57644;48.416;-123.374;2022-11-21T07:03:47;47;45;
70249;PMS5003;57644;48.416;-123.374;2022-11-21T07:06:18;48;43;
70249;PMS5003;57644;48.416;-123.374;2022-11-21T07:08:51;45;42;
70249;PMS5003;57644;48.416;-123.374;2022-11-21T07:11:19;46;45;
70249;PMS5003;57644;48.416;-123.374;2022-11-21T07:13:50;47;45;
70249;PMS5003;57644;48.416;-123.374;2022-11-21T07:16:20;53;50;
70249;PMS5003;57644;48.416;-123.374;2022-11-21T07:18:51;53;52;
70249;PMS5003;57644;48.416;-123.374;2022-11-21T07:21:21;52;48;
70249;PMS5003;57644;48.416;-123.374;2022-11-21T07:23:51;44;43;
70249;PMS5003;57644;48.416;-123.374;2022-11-21T07:26:22;46;44;
70249;PMS5003;57644;48.416;-123.374;2022-11-21T07:28:52;49;48;
70249;PMS5003;57644;48.416;-123.374;2022-11-21T07:31:23;49;44;
70249;PMS5003;57644;48.416;-123.374;2022-11-21T07:33:54;41;40;
70249;PMS5003;57644;48.416;-123.374;2022-11-21T07:36:24;48;44;
70249;PMS5003;57644;48.416;-123.374;2022-11-21T07:38:55;46;44;
70249;PMS5003;57644;48.416;-123.374;2022-11-21T07:41:25;42;39;
70249;PMS5003;57644;48.416;-123.374;2022-11-21T07:43:55;43;42;
70249;PMS5003;57644;48.416;-123.374;2022-11-21T07:46:25;43;40;
70249;PMS5003;57644;48.416;-123.374;2022-11-21T07:48:56;42;38;
70249;PMS5003;57644;48.416;-123.374;2022-11-21T07:51:26;41;39;
70249;PMS5003;57644;48.416;-123.374;2022-11-21T07:53:56;39;39;
70249;PMS5003;57644;48.416;-123.374;2022-11-21T07:56:26;42;40;
70249;PMS5003;57644;48.416;-123.374;2022-11-21T07:58:56;32;32;
70249;PMS5003;57644;48.416;-123.374;2022-11-21T08:01:27;36;36;
70249;PMS5003;57644;48.416;-123.374;2022-11-21T08:03:57;36;34;
70249;PMS5003;57644;48.416;-123.374;2022-11-21T08:06:28;38;36;
70249;PMS5003;57644;48.416;-123.374;2022-11-21T08:08:58;35;34;
70249;PMS5003;57644;48.416;-123.374;2022-11-21T08:11:28;30;29;
70249;PMS5003;57644;48.416;-123.374;2022-11-21T08:13:59;31;29;
70249;PMS5003;57644;48.416;-123.374;2022-11-21T08:16:30;35;33;
70249;PMS5003;57644;48.416;-123.374;2022-11-21T08:19:00;35;34;
70249;PMS5003;57644;48.416;-123.374;2022-11-21T08:21:30;29;27;
70249;PMS5003;57644;48.416;-123.374;2022-11-21T08:24:01;33;32;
70249;PMS5003;57644;48.416;-123.374;2022-11-21T08:26:32;30;29;
70249;PMS5003;57644;48.416;-123.374;2022-11-21T08:29:02;34;34;
70249;PMS5003;57644;48.416;-123.374;2022-11-21T08:31:33;28;28;
70249;PMS5003;57644;48.416;-123.374;2022-11-21T08:34:03;35;33;
70249;PMS5003;57644;48.416;-123.374;2022-11-21T08:36:34;30;28;
70249;PMS5003;57644;48.416;-123.374;2022-11-21T08:39:05;36;36;
70249;PMS5003;57644;48.416;-123.374;2022-11-21T08:41:35;38;38;
70249;PMS5003;57644;48.416;-123.374;2022-11-21T08:44:06;31;28;
70249;PMS5003;57644;48.416;-123.374;2022-11-21T08:46:36;35;34;
70249;PMS5003;57644;48.416;-123.374;2022-11-21T08:49:06;31;30;
70249;PMS5003;57644;48.416;-123.374;2022-11-21T08:51:37;33;31;
70249;PMS5003;57644;48.416;-123.374;2022-11-21T08:54:08;35;35;
70249;PMS5003;57644;48.416;-123.374;2022-11-21T08:56:38;30;29;
70249;PMS5003;57644;48.416;-123.374;2022-11-21T08:59:09;34;34;
70249;PMS5003;57644;48.416;-123.374;2022-11-21T09:01:39;30;29;
70249;PMS5003;57644;48.416;-123.374;2022-11-21T09:04:10;33;32;
70249;PMS5003;57644;48.416;-123.374;2022-11-21T09:06:40;31;30;
70249;PMS5003;57644;48.416;-123.374;2022-11-21T09:09:10;32;32;
70249;PMS5003;57644;48.416;-123.374;2022-11-21T09:11:40;45;42;
70249;PMS5003;57644;48.416;-123.374;2022-11-21T09:14:11;33;32;
70249;PMS5003;57644;48.416;-123.374;2022-11-21T09:16:42;33;31;
70249;PMS5003;57644;48.416;-123.374;2022-11-21T09:19:12;37;34;
70249;PMS5003;57644;48.416;-123.374;2022-11-21T09:21:42;35;34;
70249;PMS5003;57644;48.416;-123.374;2022-11-21T09:24:12;36;34;
70249;PMS5003;57644;48.416;-123.374;2022-11-21T09:26:43;35;34;
70249;PMS5003;57644;48.416;-123.374;2022-11-21T09:29:14;36;33;
70249;PMS5003;57644;48.416;-123.374;2022-11-21T09:31:44;30;29;
70249;PMS5003;57644;48.416;-123.374;2022-11-21T09:34:15;39;35;
70249;PMS5003;57644;48.416;-123.374;2022-11-21T09:36:46;34;32;
70249;PMS5003;57644;48.416;-123.374;2022-11-21T09:39:15;31;30;
70249;PMS5003;57644;48.416;-123.374;2022-11-21T09:41:48;31;29;
70249;PMS5003;57644;48.416;-123.374;2022-11-21T09:44:19;34;33;
70249;PMS5003;57644;48.416;-123.374;2022-11-21T09:46:48;38;36;
70249;PMS5003;57644;48.416;-123.374;2022-11-21T09:49:17;33;32;
70249;PMS5003;57644;48.416;-123.374;2022-11-21T09:51:48;29;29;
70249;PMS5003;57644;48.416;-123.374;2022-11-21T09:54:21;31;30;
70249;PMS5003;57644;48.416;-123.374;2022-11-21T09:56:49;31;31;
70249;PMS5003;57644;48.416;-123.374;2022-11-21T09:59:24;37;36;
70249;PMS5003;57644;48.416;-123.374;2022-11-21T10:01:50;35;34;
70249;PMS5003;57644;48.416;-123.374;2022-11-21T10:04:20;31;31;
70249;PMS5003;57644;48.416;-123.374;2022-11-21T10:06:54;32;31;
70249;PMS5003;57644;48.416;-123.374;2022-11-21T10:09:22;30;27;
70249;PMS5003;57644;48.416;-123.374;2022-11-21T10:11:54;31;29;
70249;PMS5003;57644;48.416;-123.374;2022-11-21T10:14:24;29;27;
70249;PMS5003;57644;48.416;-123.374;2022-11-21T10:16:55;28;28;
70249;PMS5003;57644;48.416;-123.374;2022-11-21T10:19:27;27;25;
70249;PMS5003;57644;48.416;-123.374;2022-11-21T10:22:02;27;26;
70249;PMS5003;57644;48.416;-123.374;2022-11-21T10:24:28;28;26;
70249;PMS5003;57644;48.416;-123.374;2022-11-21T10:26:55;24;22;
70249;PMS5003;57644;48.416;-123.374;2022-11-21T10:29:26;27;26;
70249;PMS5003;57644;48.416;-123.374;2022-11-21T10:31:57;27;27;
70249;PMS5003;57644;48.416;-123.374;2022-11-21T10:34:28;26;26;
70249;PMS5003;57644;48.416;-123.374;2022-11-21T10:36:57;24;23;
70249;PMS5003;57644;48.416;-123.374;2022-11-21T10:39:33;24;23;
70249;PMS5003;57644;48.416;-123.374;2022-11-21T10:41:59;28;26;
70249;PMS5003;57644;48.416;-123.374;2022-11-21T10:44:28;23;23;
70249;PMS5003;57644;48.416;-123.374;2022-11-21T10:46:59;25;24;
70249;PMS5003;57644;48.416;-123.374;2022-11-21T10:49:29;24;22;
70249;PMS5003;57644;48.416;-123.374;2022-11-21T10:52:00;29;28;
70249;PMS5003;57644;48.416;-123.374;2022-11-21T10:54:29;26;24;
70249;PMS5003;57644;48.416;-123.374;2022-11-21T10:57:00;23;22;
70249;PMS5003;57644;48.416;-123.374;2022-11-21T10:59:30;25;25;
70249;PMS5003;57644;48.416;-123.374;2022-11-21T11:02:01;25;24;
70249;PMS5003;57644;48.416;-123.374;2022-11-21T11:04:31;23;23;
70249;PMS5003;57644;48.416;-123.374;2022-11-21T11:09:32;23;22;
70249;PMS5003;57644;48.416;-123.374;2022-11-21T11:14:32;25;24;
70249;PMS5003;57644;48.416;-123.374;2022-11-21T11:17:03;20;20;
70249;PMS5003;57644;48.416;-123.374;2022-11-21T11:19:33;24;24;
70249;PMS5003;57644;48.416;-123.374;2022-11-21T11:22:06;21;20;
70249;PMS5003;57644;48.416;-123.374;2022-11-21T11:24:34;22;21;
70249;PMS5003;57644;48.416;-123.374;2022-11-21T11:27:05;22;20;
70249;PMS5003;57644;48.416;-123.374;2022-11-21T11:29:40;25;23;
70249;PMS5003;57644;48.416;-123.374;2022-11-21T11:32:11;21;19;
70249;PMS5003;57644;48.416;-123.374;2022-11-21T11:34:38;25;25;
70249;PMS5003;57644;48.416;-123.374;2022-11-21T11:37:10;25;23;
70249;PMS5003;57644;48.416;-123.374;2022-11-21T11:39:39;24;23;
70249;PMS5003;57644;48.416;-123.374;2022-11-21T11:44:42;18;18;
70249;PMS5003;57644;48.416;-123.374;2022-11-21T11:47:10;22;21;
70249;PMS5003;57644;48.416;-123.374;2022-11-21T11:49:41;22;21;
70249;PMS5003;57644;48.416;-123.374;2022-11-21T11:52:10;22;20;
70249;PMS5003;57644;48.416;-123.374;2022-11-21T11:54:40;23;23;
70249;PMS5003;57644;48.416;-123.374;2022-11-21T11:57:10;26;24;
70249;PMS5003;57644;48.416;-123.374;2022-11-21T11:59:42;22;21;
70249;PMS5003;57644;48.416;-123.374;2022-11-21T12:02:12;21;19;
70249;PMS5003;57644;48.416;-123.374;2022-11-21T12:04:42;23;22;
70249;PMS5003;57644;48.416;-123.374;2022-11-21T12:07:14;22;21;
70249;PMS5003;57644;48.416;-123.374;2022-11-21T12:09:44;21;21;
70249;PMS5003;57644;48.416;-123.374;2022-11-21T12:12:14;21;21;
70249;PMS5003;57644;48.416;-123.374;2022-11-21T12:14:47;26;23;
70249;PMS5003;57644;48.416;-123.374;2022-11-21T12:17:13;24;24;
70249;PMS5003;57644;48.416;-123.374;2022-11-21T12:19:43;26;22;
70249;PMS5003;57644;48.416;-123.374;2022-11-21T12:22:14;25;24;
70249;PMS5003;57644;48.416;-123.374;2022-11-21T12:24:44;27;27;
70249;PMS5003;57644;48.416;-123.374;2022-11-21T12:27:18;27;26;
70249;PMS5003;57644;48.416;-123.374;2022-11-21T12:29:51;25;23;
70249;PMS5003;57644;48.416;-123.374;2022-11-21T12:32:20;25;25;
70249;PMS5003;57644;48.416;-123.374;2022-11-21T12:37:19;27;26;
70249;PMS5003;57644;48.416;-123.374;2022-11-21T12:39:53;25;23;
70249;PMS5003;57644;48.416;-123.374;2022-11-21T12:42:21;26;26;
70249;PMS5003;57644;48.416;-123.374;2022-11-21T12:44:53;27;26;
70249;PMS5003;57644;48.416;-123.374;2022-11-21T12:47:23;26;24;
70249;PMS5003;57644;48.416;-123.374;2022-11-21T12:49:51;28;27;
70249;PMS5003;57644;48.416;-123.374;2022-11-21T12:52:21;29;26;
70249;PMS5003;57644;48.416;-123.374;2022-11-21T12:54:55;24;23;
70249;PMS5003;57644;48.416;-123.374;2022-11-21T12:57:23;25;25;
70249;PMS5003;57644;48.416;-123.374;2022-11-21T12:59:55;25;21;
70249;PMS5003;57644;48.416;-123.374;2022-11-21T13:02:25;26;25;
70249;PMS5003;57644;48.416;-123.374;2022-11-21T13:04:53;24;24;
70249;PMS5003;57644;48.416;-123.374;2022-11-21T13:07:23;21;21;
70249;PMS5003;57644;48.416;-123.374;2022-11-21T13:09:53;19;18;
70249;PMS5003;57644;48.416;-123.374;2022-11-21T13:12:25;24;23;
70249;PMS5003;57644;48.416;-123.374;2022-11-21T13:14:54;21;21;
70249;PMS5003;57644;48.416;-123.374;2022-11-21T13:17:27;25;23;
70249;PMS5003;57644;48.416;-123.374;2022-11-21T13:19:54;21;21;
70249;PMS5003;57644;48.416;-123.374;2022-11-21T13:24:55;25;25;
70249;PMS5003;57644;48.416;-123.374;2022-11-21T13:27:27;25;24;
70249;PMS5003;57644;48.416;-123.374;2022-11-21T13:34:56;23;22;
70249;PMS5003;57644;48.416;-123.374;2022-11-21T13:39:59;24;23;
70249;PMS5003;57644;48.416;-123.374;2022-11-21T13:42:28;22;21;
70249;PMS5003;57644;48.416;-123.374;2022-11-21T13:45:35;25;23;
70249;PMS5003;57644;48.416;-123.374;2022-11-21T13:50:03;23;23;
70249;PMS5003;57644;48.416;-123.374;2022-11-21T13:52:32;22;21;
70249;PMS5003;57644;48.416;-123.374;2022-11-21T13:55:05;22;22;
70249;PMS5003;57644;48.416;-123.374;2022-11-21T13:57:37;21;21;
70249;PMS5003;57644;48.416;-123.374;2022-11-21T14:00:12;20;20;
70249;PMS5003;57644;48.416;-123.374;2022-11-21T14:07:33;28;26;
70249;PMS5003;57644;48.416;-123.374;2022-11-21T14:10:04;23;22;
70249;PMS5003;57644;48.416;-123.374;2022-11-21T14:12:38;30;29;
70249;PMS5003;57644;48.416;-123.374;2022-11-21T14:17:37;24;24;
70249;PMS5003;57644;48.416;-123.374;2022-11-21T14:20:12;23;22;
70249;PMS5003;57644;48.416;-123.374;2022-11-21T14:22:38;25;22;
70249;PMS5003;57644;48.416;-123.374;2022-11-21T14:25:06;24;24;
70249;PMS5003;57644;48.416;-123.374;2022-11-21T14:27:37;21;20;
70249;PMS5003;57644;48.416;-123.374;2022-11-21T14:32:37;22;22;
70249;PMS5003;57644;48.416;-123.374;2022-11-21T14:35:10;23;22;
70249;PMS5003;57644;48.416;-123.374;2022-11-21T14:37:39;27;25;
70249;PMS5003;57644;48.416;-123.374;2022-11-21T14:40:10;21;21;
70249;PMS5003;57644;48.416;-123.374;2022-11-21T14:42:39;25;25;
70249;PMS5003;57644;48.416;-123.374;2022-11-21T14:45:14;20;20;
70249;PMS5003;57644;48.416;-123.374;2022-11-21T14:52:40;23;23;
70249;PMS5003;57644;48.416;-123.374;2022-11-21T15:12:44;30;26;
70249;PMS5003;57644;48.416;-123.374;2022-11-21T16:58:07;21;21;
70249;PMS5003;57644;48.416;-123.374;2022-11-21T17:08:04;36;35;
70249;PMS5003;57644;48.416;-123.374;2022-11-21T17:10:36;28;27;
70249;PMS5003;57644;48.416;-123.374;2022-11-21T17:13:08;21;21;
70249;PMS5003;57644;48.416;-123.374;2022-11-21T17:15:35;23;19;
70249;PMS5003;57644;48.416;-123.374;2022-11-21T20:08:36;20;18;
70249;PMS5003;57644;48.416;-123.374;2022-11-21T21:08:53;16;15;
70249;PMS5003;57644;48.416;-123.374;2022-11-21T21:11:16;15;12;
70249;PMS5003;57644;48.416;-123.374;2022-11-21T21:18:52;13;13;
70249;PMS5003;57644;48.416;-123.374;2022-11-21T21:23:52;17;16;
70249;PMS5003;57644;48.416;-123.374;2022-11-21T21:26:22;14;13;
70249;PMS5003;57644;48.416;-123.374;2022-11-21T21:28:48;16;16;
70249;PMS5003;57644;48.416;-123.374;2022-11-21T21:31:20;16;15;
70249;PMS5003;57644;48.416;-123.374;2022-11-21T21:33:48;14;14;
70249;PMS5003;57644;48.416;-123.374;2022-11-21T21:36:19;19;18;
70249;PMS5003;57644;48.416;-123.374;2022-11-21T21:46:21;15;14;
70249;PMS5003;57644;48.416;-123.374;2022-11-21T21:58:52;17;17;
70249;PMS5003;57644;48.416;-123.374;2022-11-21T22:01:23;15;15;
70249;PMS5003;57644;48.416;-123.374;2022-11-21T22:03:53;15;14;
70249;PMS5003;57644;48.416;-123.374;2022-11-21T22:06:23;16;16;
70249;PMS5003;57644;48.416;-123.374;2022-11-21T22:08:54;17;16;
70249;PMS5003;57644;48.416;-123.374;2022-11-21T22:11:24;16;16;
70249;PMS5003;57644;48.416;-123.374;2022-11-21T22:13:55;16;15;
70249;PMS5003;57644;48.416;-123.374;2022-11-21T22:16:24;23;22;
70249;PMS5003;57644;48.416;-123.374;2022-11-21T22:18:55;16;16;
70249;PMS5003;57644;48.416;-123.374;2022-11-21T22:21:26;17;17;
70249;PMS5003;57644;48.416;-123.374;2022-11-21T22:23:55;18;15;
70249;PMS5003;57644;48.416;-123.374;2022-11-21T22:26:25;16;16;
70249;PMS5003;57644;48.416;-123.374;2022-11-21T22:28:56;19;18;
70249;PMS5003;57644;48.416;-123.374;2022-11-21T22:31:28;18;16;
70249;PMS5003;57644;48.416;-123.374;2022-11-21T22:33:57;18;17;
70249;PMS5003;57644;48.416;-123.374;2022-11-21T22:36:27;17;17;
70249;PMS5003;57644;48.416;-123.374;2022-11-21T22:38:58;15;14;
70249;PMS5003;57644;48.416;-123.374;2022-11-21T22:41:28;15;15;
70249;PMS5003;57644;48.416;-123.374;2022-11-21T22:43:59;16;16;
70249;PMS5003;57644;48.416;-123.374;2022-11-21T22:46:30;18;17;
70249;PMS5003;57644;48.416;-123.374;2022-11-21T22:49:00;19;17;
70249;PMS5003;57644;48.416;-123.374;2022-11-21T22:51:31;18;17;
70249;PMS5003;57644;48.416;-123.374;2022-11-21T22:54:01;18;18;